sensor_id;sensor_type;location;lat;lon;timestamp;P1;durP1;ratioP1;P2;durP2;ratioP2
10009;SDS011;5044;48.652;9.250;2023-09-08T05:53:11;6.38;;;4.78;;
10009;SDS011;5044;48.652;9.250;2023-09-08T05:55:37;5.05;;;4.00;;
10009;SDS011;5044;48.652;9.250;2023-09-08T05:58:04;7.63;;;3.78;;
10009;SDS011;5044;48.652;9.250;2023-09-08T06:00:32;5.57;;;3.92;;
10009;SDS011;5044;48.652;9.250;2023-09-08T06:02:59;6.07;;;4.65;;
10009;SDS011;5044;48.652;9.250;2023-09-08T06:05:25;6.20;;;4.22;;
10009;SDS011;5044;48.652;9.250;2023-09-08T06:07:52;7.05;;;4.35;;
10009;SDS011;5044;48.652;9.250;2023-09-08T06:10:20;5.78;;;4.57;;
10009;SDS011;5044;48.652;9.250;2023-09-08T06:12:47;7.15;;;4.57;;
10009;SDS011;5044;48.652;9.250;2023-09-08T06:15:15;6.30;;;4.90;;
10009;SDS011;5044;48.652;9.250;2023-09-08T06:17:42;7.80;;;4.85;;
10009;SDS011;5044;48.652;9.250;2023-09-08T06:20:09;8.60;;;4.45;;
10009;SDS011;5044;48.652;9.250;2023-09-08T06:22:37;6.97;;;4.63;;
10009;SDS011;5044;48.652;9.250;2023-09-08T06:25:04;9.90;;;5.03;;
10009;SDS011;5044;48.652;9.250;2023-09-08T06:27:33;8.35;;;4.55;;
10009;SDS011;5044;48.652;9.250;2023-09-08T06:30:00;6.47;;;4.28;;
10009;SDS011;5044;48.652;9.250;2023-09-08T06:32:27;5.93;;;4.32;;
10009;SDS011;5044;48.652;9.250;2023-09-08T06:34:54;7.05;;;4.72;;
10009;SDS011;5044;48.652;9.250;2023-09-08T06:37:20;6.85;;;4.70;;
10009;SDS011;5044;48.652;9.250;2023-09-08T06:39:47;8.85;;;4.57;;
10009;SDS011;5044;48.652;9.250;2023-09-08T06:42:14;6.20;;;4.82;;
10009;SDS011;5044;48.652;9.250;2023-09-08T06:44:42;5.90;;;5.00;;
10009;SDS011;5044;48.652;9.250;2023-09-08T06:47:09;8.35;;;5.20;;
10009;SDS011;5044;48.652;9.250;2023-09-08T06:49:36;5.95;;;4.90;;
10009;SDS011;5044;48.652;9.250;2023-09-08T06:52:03;6.13;;;5.30;;
10009;SDS011;5044;48.652;9.250;2023-09-08T06:54:30;6.20;;;4.25;;
10009;SDS011;5044;48.652;9.250;2023-09-08T06:56:57;7.57;;;5.32;;
10009;SDS011;5044;48.652;9.250;2023-09-08T06:59:24;5.60;;;4.47;;
10009;SDS011;5044;48.652;9.250;2023-09-08T07:01:52;7.20;;;4.70;;
10009;SDS011;5044;48.652;9.250;2023-09-08T07:04:19;7.03;;;4.55;;
10009;SDS011;5044;48.652;9.250;2023-09-08T07:06:46;6.15;;;4.50;;
10009;SDS011;5044;48.652;9.250;2023-09-08T07:09:15;7.28;;;5.22;;
10009;SDS011;5044;48.652;9.250;2023-09-08T07:11:41;8.18;;;5.45;;
10009;SDS011;5044;48.652;9.250;2023-09-08T07:14:07;7.15;;;5.13;;
10009;SDS011;5044;48.652;9.250;2023-09-08T07:16:34;8.98;;;5.95;;
10009;SDS011;5044;48.652;9.250;2023-09-08T07:19:02;6.53;;;4.38;;
10009;SDS011;5044;48.652;9.250;2023-09-08T07:21:29;6.10;;;4.93;;
10009;SDS011;5044;48.652;9.250;2023-09-08T07:23:56;8.38;;;5.97;;
10009;SDS011;5044;48.652;9.250;2023-09-08T07:26:37;9.00;;;5.60;;
10009;SDS011;5044;48.652;9.250;2023-09-08T07:29:04;8.88;;;5.50;;
10009;SDS011;5044;48.652;9.250;2023-09-08T07:31:32;8.23;;;5.90;;
10009;SDS011;5044;48.652;9.250;2023-09-08T07:34:07;9.23;;;6.43;;
10009;SDS011;5044;48.652;9.250;2023-09-08T07:36:35;7.07;;;5.05;;
10009;SDS011;5044;48.652;9.250;2023-09-08T07:39:04;6.85;;;4.70;;
10009;SDS011;5044;48.652;9.250;2023-09-08T07:41:36;6.72;;;4.85;;
10009;SDS011;5044;48.652;9.250;2023-09-08T07:44:12;7.93;;;5.55;;
10009;SDS011;5044;48.652;9.250;2023-09-08T07:46:39;9.23;;;5.72;;
10009;SDS011;5044;48.652;9.250;2023-09-08T07:49:14;6.22;;;5.22;;
10009;SDS011;5044;48.652;9.250;2023-09-08T07:51:52;6.53;;;5.47;;
10009;SDS011;5044;48.652;9.250;2023-09-08T07:54:19;7.38;;;4.90;;
10009;SDS011;5044;48.652;9.250;2023-09-08T07:56:46;5.95;;;5.25;;
10009;SDS011;5044;48.652;9.250;2023-09-08T07:59:18;7.90;;;5.80;;
10009;SDS011;5044;48.652;9.250;2023-09-08T08:01:46;7.47;;;5.22;;
10009;SDS011;5044;48.652;9.250;2023-09-08T08:04:16;5.97;;;4.78;;
10009;SDS011;5044;48.652;9.250;2023-09-08T08:06:46;6.53;;;4.82;;
10009;SDS011;5044;48.652;9.250;2023-09-08T08:09:14;10.23;;;5.15;;
10009;SDS011;5044;48.652;9.250;2023-09-08T08:11:45;6.38;;;4.40;;
10009;SDS011;5044;48.652;9.250;2023-09-08T08:14:13;6.68;;;3.97;;
10009;SDS011;5044;48.652;9.250;2023-09-08T08:16:40;5.30;;;4.07;;
10009;SDS011;5044;48.652;9.250;2023-09-08T08:19:07;6.53;;;4.20;;
10009;SDS011;5044;48.652;9.250;2023-09-08T08:21:35;6.05;;;4.32;;
10009;SDS011;5044;48.652;9.250;2023-09-08T08:24:09;5.93;;;4.18;;
10009;SDS011;5044;48.652;9.250;2023-09-08T08:26:44;6.97;;;4.70;;
10009;SDS011;5044;48.652;9.250;2023-09-08T08:29:18;5.15;;;4.30;;
10009;SDS011;5044;48.652;9.250;2023-09-08T08:31:46;7.88;;;4.18;;
10009;SDS011;5044;48.652;9.250;2023-09-08T08:34:13;5.10;;;4.20;;
10009;SDS011;5044;48.652;9.250;2023-09-08T08:36:44;5.47;;;4.20;;
10009;SDS011;5044;48.652;9.250;2023-09-08T08:39:14;5.57;;;4.25;;
10009;SDS011;5044;48.652;9.250;2023-09-08T08:41:48;4.32;;;3.92;;
10009;SDS011;5044;48.652;9.250;2023-09-08T08:44:23;8.75;;;3.95;;
10009;SDS011;5044;48.652;9.250;2023-09-08T08:46:59;5.35;;;4.50;;
10009;SDS011;5044;48.652;9.250;2023-09-08T08:49:35;4.57;;;3.47;;
10009;SDS011;5044;48.652;9.250;2023-09-08T08:52:09;5.43;;;3.72;;
10009;SDS011;5044;48.652;9.250;2023-09-08T08:54:39;4.93;;;4.20;;
10009;SDS011;5044;48.652;9.250;2023-09-08T08:57:10;4.95;;;3.85;;
10009;SDS011;5044;48.652;9.250;2023-09-08T08:59:41;5.75;;;4.60;;
10009;SDS011;5044;48.652;9.250;2023-09-08T09:02:13;8.02;;;4.78;;
10009;SDS011;5044;48.652;9.250;2023-09-08T09:04:40;7.10;;;5.15;;
10009;SDS011;5044;48.652;9.250;2023-09-08T09:07:16;5.85;;;4.20;;
10009;SDS011;5044;48.652;9.250;2023-09-08T09:09:49;5.05;;;4.10;;
10009;SDS011;5044;48.652;9.250;2023-09-08T09:12:17;6.18;;;4.13;;
10009;SDS011;5044;48.652;9.250;2023-09-08T09:14:47;4.25;;;3.67;;
10009;SDS011;5044;48.652;9.250;2023-09-08T09:17:14;5.78;;;3.83;;
10009;SDS011;5044;48.652;9.250;2023-09-08T09:19:41;6.03;;;4.50;;
10009;SDS011;5044;48.652;9.250;2023-09-08T09:22:08;6.97;;;3.90;;
10009;SDS011;5044;48.652;9.250;2023-09-08T09:24:39;6.45;;;3.70;;
10009;SDS011;5044;48.652;9.250;2023-09-08T09:27:19;4.88;;;4.25;;
10009;SDS011;5044;48.652;9.250;2023-09-08T09:29:50;5.28;;;3.60;;
10009;SDS011;5044;48.652;9.250;2023-09-08T09:32:22;6.90;;;3.38;;
10009;SDS011;5044;48.652;9.250;2023-09-08T09:34:50;4.95;;;3.70;;
10009;SDS011;5044;48.652;9.250;2023-09-08T09:37:21;7.32;;;4.32;;
10009;SDS011;5044;48.652;9.250;2023-09-08T09:39:54;11.80;;;4.70;;
10009;SDS011;5044;48.652;9.250;2023-09-08T09:42:21;5.82;;;4.30;;
10009;SDS011;5044;48.652;9.250;2023-09-08T09:44:48;6.35;;;3.47;;
10009;SDS011;5044;48.652;9.250;2023-09-08T09:47:18;6.13;;;3.95;;
10009;SDS011;5044;48.652;9.250;2023-09-08T09:49:46;4.95;;;4.15;;
10009;SDS011;5044;48.652;9.250;2023-09-08T09:52:20;4.85;;;4.40;;
10009;SDS011;5044;48.652;9.250;2023-09-08T09:54:49;6.97;;;4.50;;
10009;SDS011;5044;48.652;9.250;2023-09-08T09:57:20;5.22;;;3.80;;
10009;SDS011;5044;48.652;9.250;2023-09-08T09:59:47;5.88;;;3.33;;
10009;SDS011;5044;48.652;9.250;2023-09-08T10:02:16;6.53;;;4.53;;
10009;SDS011;5044;48.652;9.250;2023-09-08T10:04:45;4.45;;;3.65;;
10009;SDS011;5044;48.652;9.250;2023-09-08T10:07:17;7.72;;;4.28;;
10009;SDS011;5044;48.652;9.250;2023-09-08T10:10:00;5.63;;;4.80;;
10009;SDS011;5044;48.652;9.250;2023-09-08T10:12:36;6.57;;;5.10;;
10009;SDS011;5044;48.652;9.250;2023-09-08T10:15:05;7.00;;;4.53;;
10009;SDS011;5044;48.652;9.250;2023-09-08T10:17:39;6.50;;;4.38;;
10009;SDS011;5044;48.652;9.250;2023-09-08T10:20:08;4.32;;;3.92;;
10009;SDS011;5044;48.652;9.250;2023-09-08T10:22:39;5.10;;;4.30;;
10009;SDS011;5044;48.652;9.250;2023-09-08T10:25:18;7.18;;;4.40;;
10009;SDS011;5044;48.652;9.250;2023-09-08T10:27:50;7.30;;;3.67;;
10009;SDS011;5044;48.652;9.250;2023-09-08T10:30:21;7.57;;;4.57;;
10009;SDS011;5044;48.652;9.250;2023-09-08T10:32:49;6.05;;;3.95;;
10009;SDS011;5044;48.652;9.250;2023-09-08T10:35:20;5.25;;;4.35;;
10009;SDS011;5044;48.652;9.250;2023-09-08T10:38:02;6.22;;;4.95;;
10009;SDS011;5044;48.652;9.250;2023-09-08T10:40:48;4.70;;;3.63;;
10009;SDS011;5044;48.652;9.250;2023-09-08T10:43:23;5.63;;;4.27;;
10009;SDS011;5044;48.652;9.250;2023-09-08T10:45:50;5.38;;;3.60;;
10009;SDS011;5044;48.652;9.250;2023-09-08T10:48:17;7.07;;;4.78;;
10009;SDS011;5044;48.652;9.250;2023-09-08T10:50:46;6.28;;;4.85;;
10009;SDS011;5044;48.652;9.250;2023-09-08T10:56:00;4.60;;;4.20;;
10009;SDS011;5044;48.652;9.250;2023-09-08T10:58:33;5.25;;;4.07;;
10009;SDS011;5044;48.652;9.250;2023-09-08T11:01:03;5.65;;;4.03;;
10009;SDS011;5044;48.652;9.250;2023-09-08T11:03:42;6.50;;;4.80;;
10009;SDS011;5044;48.652;9.250;2023-09-08T11:06:11;5.85;;;4.38;;
10009;SDS011;5044;48.652;9.250;2023-09-08T11:08:40;6.05;;;4.13;;
10009;SDS011;5044;48.652;9.250;2023-09-08T11:11:09;6.33;;;5.40;;
10009;SDS011;5044;48.652;9.250;2023-09-08T11:13:41;5.88;;;4.30;;
10009;SDS011;5044;48.652;9.250;2023-09-08T11:16:10;5.65;;;4.28;;
10009;SDS011;5044;48.652;9.250;2023-09-08T11:18:38;7.90;;;4.78;;
10009;SDS011;5044;48.652;9.250;2023-09-08T11:23:36;6.05;;;4.57;;
10009;SDS011;5044;48.652;9.250;2023-09-08T11:26:04;3.88;;;3.45;;
10009;SDS011;5044;48.652;9.250;2023-09-08T11:28:33;10.82;;;4.40;;
10009;SDS011;5044;48.652;9.250;2023-09-08T11:31:07;5.20;;;3.90;;
10009;SDS011;5044;48.652;9.250;2023-09-08T11:33:37;6.10;;;3.85;;
10009;SDS011;5044;48.652;9.250;2023-09-08T11:36:11;5.55;;;4.00;;
10009;SDS011;5044;48.652;9.250;2023-09-08T11:38:40;3.95;;;3.55;;
10009;SDS011;5044;48.652;9.250;2023-09-08T11:41:12;5.82;;;4.20;;
10009;SDS011;5044;48.652;9.250;2023-09-08T11:43:43;4.18;;;3.78;;
10009;SDS011;5044;48.652;9.250;2023-09-08T11:46:13;4.40;;;4.00;;
10009;SDS011;5044;48.652;9.250;2023-09-08T11:48:43;4.50;;;4.10;;
10009;SDS011;5044;48.652;9.250;2023-09-08T11:51:10;5.03;;;3.78;;
10009;SDS011;5044;48.652;9.250;2023-09-08T11:53:39;8.43;;;4.20;;
10009;SDS011;5044;48.652;9.250;2023-09-08T11:56:13;6.35;;;4.05;;
10009;SDS011;5044;48.652;9.250;2023-09-08T11:58:42;5.53;;;3.72;;
10009;SDS011;5044;48.652;9.250;2023-09-08T12:01:12;4.75;;;3.78;;
10009;SDS011;5044;48.652;9.250;2023-09-08T12:03:50;5.30;;;3.70;;
10009;SDS011;5044;48.652;9.250;2023-09-08T12:06:17;5.05;;;3.72;;
10009;SDS011;5044;48.652;9.250;2023-09-08T12:08:44;4.47;;;3.95;;
10009;SDS011;5044;48.652;9.250;2023-09-08T12:11:11;5.03;;;3.50;;
10009;SDS011;5044;48.652;9.250;2023-09-08T12:13:38;4.15;;;3.70;;
10009;SDS011;5044;48.652;9.250;2023-09-08T12:16:18;5.18;;;4.13;;
10009;SDS011;5044;48.652;9.250;2023-09-08T12:18:48;6.57;;;3.80;;
10009;SDS011;5044;48.652;9.250;2023-09-08T12:21:15;4.47;;;4.00;;
10009;SDS011;5044;48.652;9.250;2023-09-08T12:23:49;5.07;;;3.92;;
10009;SDS011;5044;48.652;9.250;2023-09-08T12:26:17;4.55;;;3.83;;
10009;SDS011;5044;48.652;9.250;2023-09-08T12:28:44;6.95;;;4.10;;
10009;SDS011;5044;48.652;9.250;2023-09-08T12:31:13;6.40;;;4.30;;
10009;SDS011;5044;48.652;9.250;2023-09-08T12:33:43;4.95;;;4.25;;
10009;SDS011;5044;48.652;9.250;2023-09-08T12:36:10;6.47;;;3.88;;
10009;SDS011;5044;48.652;9.250;2023-09-08T12:38:38;4.50;;;4.00;;
10009;SDS011;5044;48.652;9.250;2023-09-08T12:41:05;5.20;;;3.90;;
10009;SDS011;5044;48.652;9.250;2023-09-08T12:43:32;5.32;;;4.00;;
10009;SDS011;5044;48.652;9.250;2023-09-08T12:46:00;5.97;;;3.63;;
10009;SDS011;5044;48.652;9.250;2023-09-08T12:48:27;5.82;;;4.40;;
10009;SDS011;5044;48.652;9.250;2023-09-08T12:50:55;4.60;;;3.80;;
10009;SDS011;5044;48.652;9.250;2023-09-08T12:53:22;4.50;;;4.07;;
10009;SDS011;5044;48.652;9.250;2023-09-08T12:55:49;4.95;;;4.13;;
10009;SDS011;5044;48.652;9.250;2023-09-08T12:58:16;6.95;;;4.13;;
10009;SDS011;5044;48.652;9.250;2023-09-08T13:00:44;4.75;;;4.25;;
10009;SDS011;5044;48.652;9.250;2023-09-08T13:03:11;4.40;;;3.88;;
10009;SDS011;5044;48.652;9.250;2023-09-08T13:05:38;4.72;;;4.20;;
10009;SDS011;5044;48.652;9.250;2023-09-08T13:08:06;6.20;;;3.70;;
10009;SDS011;5044;48.652;9.250;2023-09-08T13:10:33;3.55;;;3.25;;
10009;SDS011;5044;48.652;9.250;2023-09-08T13:13:00;8.00;;;3.83;;
10009;SDS011;5044;48.652;9.250;2023-09-08T13:15:27;12.90;;;4.18;;
10009;SDS011;5044;48.652;9.250;2023-09-08T13:17:54;11.93;;;4.57;;
10009;SDS011;5044;48.652;9.250;2023-09-08T13:20:21;5.25;;;3.75;;
10009;SDS011;5044;48.652;9.250;2023-09-08T13:22:48;5.78;;;3.72;;
10009;SDS011;5044;48.652;9.250;2023-09-08T13:25:17;5.80;;;3.88;;
10009;SDS011;5044;48.652;9.250;2023-09-08T13:27:43;7.93;;;4.20;;
10009;SDS011;5044;48.652;9.250;2023-09-08T13:30:13;5.10;;;3.63;;
10009;SDS011;5044;48.652;9.250;2023-09-08T13:32:41;6.85;;;4.25;;
10009;SDS011;5044;48.652;9.250;2023-09-08T13:35:08;5.53;;;4.57;;
10009;SDS011;5044;48.652;9.250;2023-09-08T13:37:36;7.97;;;4.03;;
10009;SDS011;5044;48.652;9.250;2023-09-08T13:40:04;6.63;;;4.28;;
10009;SDS011;5044;48.652;9.250;2023-09-08T13:42:33;5.35;;;4.00;;
10009;SDS011;5044;48.652;9.250;2023-09-08T13:45:00;5.35;;;3.65;;
10009;SDS011;5044;48.652;9.250;2023-09-08T13:47:28;5.35;;;3.72;;
10009;SDS011;5044;48.652;9.250;2023-09-08T13:49:55;8.32;;;4.05;;
10009;SDS011;5044;48.652;9.250;2023-09-08T13:52:21;5.05;;;4.22;;
10009;SDS011;5044;48.652;9.250;2023-09-08T13:54:48;8.57;;;4.72;;
10009;SDS011;5044;48.652;9.250;2023-09-08T13:57:15;7.85;;;4.40;;
10009;SDS011;5044;48.652;9.250;2023-09-08T13:59:46;6.22;;;4.30;;
10009;SDS011;5044;48.652;9.250;2023-09-08T14:02:13;4.20;;;3.50;;
10009;SDS011;5044;48.652;9.250;2023-09-08T14:04:40;4.22;;;3.83;;
10009;SDS011;5044;48.652;9.250;2023-09-08T14:07:07;6.20;;;3.58;;
10009;SDS011;5044;48.652;9.250;2023-09-08T14:09:34;5.20;;;4.25;;
10009;SDS011;5044;48.652;9.250;2023-09-08T14:12:02;4.40;;;4.03;;
10009;SDS011;5044;48.652;9.250;2023-09-08T14:14:29;3.65;;;3.20;;
10009;SDS011;5044;48.652;9.250;2023-09-08T14:16:57;6.43;;;3.72;;
10009;SDS011;5044;48.652;9.250;2023-09-08T14:19:24;7.50;;;4.05;;
10009;SDS011;5044;48.652;9.250;2023-09-08T14:21:51;7.30;;;4.25;;
10009;SDS011;5044;48.652;9.250;2023-09-08T14:24:18;6.82;;;3.70;;
10009;SDS011;5044;48.652;9.250;2023-09-08T14:26:45;6.97;;;4.10;;
10009;SDS011;5044;48.652;9.250;2023-09-08T14:29:12;5.30;;;4.15;;
10009;SDS011;5044;48.652;9.250;2023-09-08T14:31:39;5.68;;;3.92;;
10009;SDS011;5044;48.652;9.250;2023-09-08T14:34:08;4.43;;;3.97;;
10009;SDS011;5044;48.652;9.250;2023-09-08T14:36:35;4.72;;;3.90;;
10009;SDS011;5044;48.652;9.250;2023-09-08T14:39:01;4.88;;;3.78;;
10009;SDS011;5044;48.652;9.250;2023-09-08T14:41:28;7.35;;;4.10;;
10009;SDS011;5044;48.652;9.250;2023-09-08T14:43:55;5.00;;;4.20;;
10009;SDS011;5044;48.652;9.250;2023-09-08T14:46:22;3.90;;;3.55;;
10009;SDS011;5044;48.652;9.250;2023-09-08T14:48:49;7.93;;;3.80;;
10009;SDS011;5044;48.652;9.250;2023-09-08T14:51:18;5.28;;;3.78;;
10009;SDS011;5044;48.652;9.250;2023-09-08T14:53:46;5.28;;;3.90;;
10009;SDS011;5044;48.652;9.250;2023-09-08T14:56:12;5.32;;;3.58;;
10009;SDS011;5044;48.652;9.250;2023-09-08T14:58:40;4.80;;;3.80;;
10009;SDS011;5044;48.652;9.250;2023-09-08T15:01:06;6.40;;;3.38;;
10009;SDS011;5044;48.652;9.250;2023-09-08T15:03:34;4.90;;;4.28;;
10009;SDS011;5044;48.652;9.250;2023-09-08T15:06:01;5.68;;;4.10;;
10009;SDS011;5044;48.652;9.250;2023-09-08T15:08:29;7.35;;;3.42;;
10009;SDS011;5044;48.652;9.250;2023-09-08T15:10:56;3.95;;;3.22;;
10009;SDS011;5044;48.652;9.250;2023-09-08T15:13:24;4.22;;;3.72;;
10009;SDS011;5044;48.652;9.250;2023-09-08T15:15:51;6.28;;;4.05;;
10009;SDS011;5044;48.652;9.250;2023-09-08T15:18:30;4.22;;;3.45;;
10009;SDS011;5044;48.652;9.250;2023-09-08T15:20:59;3.50;;;3.10;;
10009;SDS011;5044;48.652;9.250;2023-09-08T15:23:26;4.97;;;3.55;;
10009;SDS011;5044;48.652;9.250;2023-09-08T15:25:55;5.03;;;3.70;;
10009;SDS011;5044;48.652;9.250;2023-09-08T15:28:23;8.20;;;4.57;;
10009;SDS011;5044;48.652;9.250;2023-09-08T15:30:50;4.65;;;4.25;;
10009;SDS011;5044;48.652;9.250;2023-09-08T15:33:18;4.15;;;3.30;;
10009;SDS011;5044;48.652;9.250;2023-09-08T15:35:47;3.95;;;3.45;;
10009;SDS011;5044;48.652;9.250;2023-09-08T15:38:14;4.65;;;3.67;;
10009;SDS011;5044;48.652;9.250;2023-09-08T15:43:45;4.72;;;3.38;;
10009;SDS011;5044;48.652;9.250;2023-09-08T15:46:13;4.68;;;3.70;;
10009;SDS011;5044;48.652;9.250;2023-09-08T15:48:40;4.55;;;3.33;;
10009;SDS011;5044;48.652;9.250;2023-09-08T15:51:07;7.80;;;4.60;;
10009;SDS011;5044;48.652;9.250;2023-09-08T15:53:35;4.22;;;3.28;;
10009;SDS011;5044;48.652;9.250;2023-09-08T15:56:05;5.25;;;3.50;;
10009;SDS011;5044;48.652;9.250;2023-09-08T15:58:34;6.13;;;3.20;;
10009;SDS011;5044;48.652;9.250;2023-09-08T16:01:02;7.10;;;3.88;;
10009;SDS011;5044;48.652;9.250;2023-09-08T16:03:31;4.95;;;3.20;;
10009;SDS011;5044;48.652;9.250;2023-09-08T16:05:58;4.13;;;3.13;;
10009;SDS011;5044;48.652;9.250;2023-09-08T16:08:25;4.35;;;3.35;;
10009;SDS011;5044;48.652;9.250;2023-09-08T16:10:51;4.35;;;3.53;;
10009;SDS011;5044;48.652;9.250;2023-09-08T16:13:18;5.45;;;3.78;;
10009;SDS011;5044;48.652;9.250;2023-09-08T16:15:47;4.65;;;3.67;;
10009;SDS011;5044;48.652;9.250;2023-09-08T16:18:14;4.25;;;3.40;;
10009;SDS011;5044;48.652;9.250;2023-09-08T16:20:41;5.57;;;3.85;;
10009;SDS011;5044;48.652;9.250;2023-09-08T16:23:08;6.43;;;3.60;;
10009;SDS011;5044;48.652;9.250;2023-09-08T16:25:35;3.30;;;2.90;;
10009;SDS011;5044;48.652;9.250;2023-09-08T16:28:02;4.82;;;3.67;;
10009;SDS011;5044;48.652;9.250;2023-09-08T16:30:29;9.18;;;3.38;;
10009;SDS011;5044;48.652;9.250;2023-09-08T16:32:57;10.73;;;3.60;;
10009;SDS011;5044;48.652;9.250;2023-09-08T16:35:24;7.47;;;3.22;;
10009;SDS011;5044;48.652;9.250;2023-09-08T16:37:52;7.68;;;3.33;;
10009;SDS011;5044;48.652;9.250;2023-09-08T16:40:19;6.25;;;3.25;;
10009;SDS011;5044;48.652;9.250;2023-09-08T16:42:47;3.60;;;2.90;;
10009;SDS011;5044;48.652;9.250;2023-09-08T16:45:14;5.45;;;3.30;;
10009;SDS011;5044;48.652;9.250;2023-09-08T16:47:41;3.45;;;2.58;;
10009;SDS011;5044;48.652;9.250;2023-09-08T16:50:10;4.53;;;3.42;;
10009;SDS011;5044;48.652;9.250;2023-09-08T16:52:37;4.88;;;2.92;;
10009;SDS011;5044;48.652;9.250;2023-09-08T16:55:04;5.38;;;3.30;;
10009;SDS011;5044;48.652;9.250;2023-09-08T16:57:36;3.72;;;2.92;;
10009;SDS011;5044;48.652;9.250;2023-09-08T17:00:04;3.72;;;3.33;;
10009;SDS011;5044;48.652;9.250;2023-09-08T17:02:32;4.55;;;3.17;;
10009;SDS011;5044;48.652;9.250;2023-09-08T17:04:59;6.00;;;3.20;;
10009;SDS011;5044;48.652;9.250;2023-09-08T17:07:28;6.78;;;4.10;;
10009;SDS011;5044;48.652;9.250;2023-09-08T17:09:55;5.15;;;2.78;;
10009;SDS011;5044;48.652;9.250;2023-09-08T17:12:22;11.65;;;3.78;;
10009;SDS011;5044;48.652;9.250;2023-09-08T17:14:49;7.03;;;3.50;;
10009;SDS011;5044;48.652;9.250;2023-09-08T17:17:15;4.70;;;3.10;;
10009;SDS011;5044;48.652;9.250;2023-09-08T17:19:42;5.63;;;3.58;;
10009;SDS011;5044;48.652;9.250;2023-09-08T17:22:09;10.02;;;3.80;;
10009;SDS011;5044;48.652;9.250;2023-09-08T17:24:38;6.32;;;4.00;;
10009;SDS011;5044;48.652;9.250;2023-09-08T17:27:04;6.32;;;3.80;;
10009;SDS011;5044;48.652;9.250;2023-09-08T17:29:31;5.60;;;4.35;;
10009;SDS011;5044;48.652;9.250;2023-09-08T17:31:58;6.57;;;5.07;;
10009;SDS011;5044;48.652;9.250;2023-09-08T17:34:25;6.32;;;4.13;;
10009;SDS011;5044;48.652;9.250;2023-09-08T17:36:52;9.02;;;4.65;;
10009;SDS011;5044;48.652;9.250;2023-09-08T17:39:21;6.47;;;4.00;;
10009;SDS011;5044;48.652;9.250;2023-09-08T17:41:50;5.75;;;3.97;;
10009;SDS011;5044;48.652;9.250;2023-09-08T17:44:17;6.50;;;4.47;;
10009;SDS011;5044;48.652;9.250;2023-09-08T17:46:44;6.57;;;4.47;;
10009;SDS011;5044;48.652;9.250;2023-09-08T17:49:11;8.40;;;4.30;;
10009;SDS011;5044;48.652;9.250;2023-09-08T17:51:38;8.05;;;3.90;;
10009;SDS011;5044;48.652;9.250;2023-09-08T17:54:05;6.95;;;3.80;;
10009;SDS011;5044;48.652;9.250;2023-09-08T17:56:33;8.70;;;4.15;;
10009;SDS011;5044;48.652;9.250;2023-09-08T17:59:01;7.25;;;4.20;;
10009;SDS011;5044;48.652;9.250;2023-09-08T18:01:28;5.38;;;3.58;;
10009;SDS011;5044;48.652;9.250;2023-09-08T18:03:56;7.25;;;3.80;;
10009;SDS011;5044;48.652;9.250;2023-09-08T18:06:24;6.15;;;3.88;;
10009;SDS011;5044;48.652;9.250;2023-09-08T18:08:51;5.25;;;3.88;;
10009;SDS011;5044;48.652;9.250;2023-09-08T18:11:18;4.35;;;3.20;;
10009;SDS011;5044;48.652;9.250;2023-09-08T18:13:46;7.68;;;4.18;;
10009;SDS011;5044;48.652;9.250;2023-09-08T18:16:15;4.40;;;3.90;;
10009;SDS011;5044;48.652;9.250;2023-09-08T18:18:42;7.75;;;4.28;;
10009;SDS011;5044;48.652;9.250;2023-09-08T18:21:10;6.28;;;4.75;;
10009;SDS011;5044;48.652;9.250;2023-09-08T18:23:37;5.93;;;4.15;;
10009;SDS011;5044;48.652;9.250;2023-09-08T18:26:05;8.43;;;4.47;;
10009;SDS011;5044;48.652;9.250;2023-09-08T18:28:33;5.88;;;4.30;;
10009;SDS011;5044;48.652;9.250;2023-09-08T18:31:00;10.52;;;4.35;;
10009;SDS011;5044;48.652;9.250;2023-09-08T18:33:31;6.50;;;4.30;;
10009;SDS011;5044;48.652;9.250;2023-09-08T18:36:00;6.53;;;4.53;;
10009;SDS011;5044;48.652;9.250;2023-09-08T18:38:27;5.05;;;3.88;;
10009;SDS011;5044;48.652;9.250;2023-09-08T18:40:58;7.43;;;4.80;;
10009;SDS011;5044;48.652;9.250;2023-09-08T18:43:25;5.55;;;4.00;;
10009;SDS011;5044;48.652;9.250;2023-09-08T18:45:55;5.95;;;4.13;;
10009;SDS011;5044;48.652;9.250;2023-09-08T18:48:23;4.90;;;3.55;;
10009;SDS011;5044;48.652;9.250;2023-09-08T18:51:00;5.63;;;3.83;;
10009;SDS011;5044;48.652;9.250;2023-09-08T18:53:30;8.27;;;4.53;;
10009;SDS011;5044;48.652;9.250;2023-09-08T18:55:59;5.40;;;3.60;;
10009;SDS011;5044;48.652;9.250;2023-09-08T18:58:28;6.60;;;4.20;;
10009;SDS011;5044;48.652;9.250;2023-09-08T19:01:01;7.18;;;4.20;;
10009;SDS011;5044;48.652;9.250;2023-09-08T19:03:29;5.00;;;4.13;;
10009;SDS011;5044;48.652;9.250;2023-09-08T19:06:01;6.53;;;4.20;;
10009;SDS011;5044;48.652;9.250;2023-09-08T19:08:30;5.97;;;4.82;;
10009;SDS011;5044;48.652;9.250;2023-09-08T19:10:59;6.95;;;4.03;;
10009;SDS011;5044;48.652;9.250;2023-09-08T19:13:27;5.53;;;4.30;;
10009;SDS011;5044;48.652;9.250;2023-09-08T19:15:54;9.45;;;4.78;;
10009;SDS011;5044;48.652;9.250;2023-09-08T19:18:30;4.95;;;4.13;;
10009;SDS011;5044;48.652;9.250;2023-09-08T19:21:02;6.63;;;4.57;;
10009;SDS011;5044;48.652;9.250;2023-09-08T19:23:30;7.80;;;4.32;;
10009;SDS011;5044;48.652;9.250;2023-09-08T19:26:03;10.52;;;4.70;;
10009;SDS011;5044;48.652;9.250;2023-09-08T19:28:32;5.90;;;4.55;;
10009;SDS011;5044;48.652;9.250;2023-09-08T19:31:13;5.35;;;4.57;;
10009;SDS011;5044;48.652;9.250;2023-09-08T19:33:54;7.35;;;4.97;;
10009;SDS011;5044;48.652;9.250;2023-09-08T19:36:27;7.47;;;4.95;;
10009;SDS011;5044;48.652;9.250;2023-09-08T19:38:58;6.38;;;4.88;;
10009;SDS011;5044;48.652;9.250;2023-09-08T19:41:26;7.32;;;5.32;;
10009;SDS011;5044;48.652;9.250;2023-09-08T19:44:10;11.55;;;5.35;;
10009;SDS011;5044;48.652;9.250;2023-09-08T19:46:52;7.40;;;5.25;;
10009;SDS011;5044;48.652;9.250;2023-09-08T19:49:21;7.60;;;5.03;;
10009;SDS011;5044;48.652;9.250;2023-09-08T19:51:51;7.57;;;5.03;;
10009;SDS011;5044;48.652;9.250;2023-09-08T19:54:21;6.35;;;5.00;;
10009;SDS011;5044;48.652;9.250;2023-09-08T19:56:49;6.70;;;5.15;;
10009;SDS011;5044;48.652;9.250;2023-09-08T19:59:16;7.32;;;5.57;;
10009;SDS011;5044;48.652;9.250;2023-09-08T20:01:45;6.63;;;4.60;;
10009;SDS011;5044;48.652;9.250;2023-09-08T20:04:15;6.57;;;4.57;;
10009;SDS011;5044;48.652;9.250;2023-09-08T20:06:43;5.40;;;3.95;;
10009;SDS011;5044;48.652;9.250;2023-09-08T20:09:13;5.82;;;4.03;;
10009;SDS011;5044;48.652;9.250;2023-09-08T20:11:43;5.28;;;4.25;;
10009;SDS011;5044;48.652;9.250;2023-09-08T20:14:11;5.68;;;4.25;;
10009;SDS011;5044;48.652;9.250;2023-09-08T20:16:40;5.88;;;4.90;;
10009;SDS011;5044;48.652;9.250;2023-09-08T20:19:09;9.43;;;4.75;;
10009;SDS011;5044;48.652;9.250;2023-09-08T20:21:40;6.07;;;4.68;;
10009;SDS011;5044;48.652;9.250;2023-09-08T20:24:19;6.55;;;4.70;;
10009;SDS011;5044;48.652;9.250;2023-09-08T20:26:48;6.25;;;4.63;;
10009;SDS011;5044;48.652;9.250;2023-09-08T20:29:19;6.03;;;4.40;;
10009;SDS011;5044;48.652;9.250;2023-09-08T20:31:54;5.35;;;4.47;;
10009;SDS011;5044;48.652;9.250;2023-09-08T20:34:28;9.65;;;4.60;;
10009;SDS011;5044;48.652;9.250;2023-09-08T20:36:59;8.45;;;5.03;;
10009;SDS011;5044;48.652;9.250;2023-09-08T20:39:50;26.40;;;14.35;;
10009;SDS011;5044;48.652;9.250;2023-09-08T20:42:21;13.18;;;9.27;;
10009;SDS011;5044;48.652;9.250;2023-09-08T20:44:50;11.35;;;8.52;;
10009;SDS011;5044;48.652;9.250;2023-09-08T20:47:16;7.07;;;5.72;;
10009;SDS011;5044;48.652;9.250;2023-09-08T20:49:50;8.73;;;5.45;;
10009;SDS011;5044;48.652;9.250;2023-09-08T20:52:32;6.13;;;4.90;;
10009;SDS011;5044;48.652;9.250;2023-09-08T20:55:07;8.07;;;5.38;;
10009;SDS011;5044;48.652;9.250;2023-09-08T20:58:04;7.60;;;5.45;;
10009;SDS011;5044;48.652;9.250;2023-09-08T21:03:45;5.50;;;4.47;;
10009;SDS011;5044;48.652;9.250;2023-09-08T21:06:17;5.47;;;4.43;;
10009;SDS011;5044;48.652;9.250;2023-09-08T21:09:00;4.47;;;3.95;;
10009;SDS011;5044;48.652;9.250;2023-09-08T21:22:26;7.07;;;4.30;;
10009;SDS011;5044;48.652;9.250;2023-09-08T21:27:20;4.80;;;3.70;;
10009;SDS011;5044;48.652;9.250;2023-09-08T21:29:51;5.38;;;4.43;;